createdAt,value
2023-11-12T00:00:34.623Z,8.60
2023-11-12T00:03:04.044Z,7.28
2023-11-12T00:05:32.743Z,7.50
2023-11-12T00:08:01.281Z,8.05
2023-11-12T00:10:32.400Z,9.40
2023-11-12T00:13:01.008Z,9.02
2023-11-12T00:15:29.501Z,8.90
2023-11-12T00:18:08.028Z,9.23
2023-11-12T00:20:36.744Z,7.47
2023-11-12T00:23:07.339Z,8.75
2023-11-12T00:25:37.405Z,8.23
2023-11-12T00:28:06.536Z,8.60
2023-11-12T00:30:35.267Z,8.00
2023-11-12T00:33:03.847Z,8.25
2023-11-12T00:35:32.407Z,7.65
2023-11-12T00:38:00.980Z,8.45
2023-11-12T00:40:32.105Z,7.95
2023-11-12T00:43:03.432Z,8.18
2023-11-12T00:45:32.433Z,8.68
2023-11-12T00:48:01.515Z,8.13
2023-11-12T00:50:29.978Z,8.02
2023-11-12T00:52:58.599Z,9.68
2023-11-12T00:55:27.193Z,7.80
2023-11-12T00:57:55.717Z,8.10
2023-11-12T01:00:25.621Z,7.55
2023-11-12T01:02:54.397Z,8.40
2023-11-12T01:05:23.189Z,7.60
2023-11-12T01:07:57.432Z,8.07
2023-11-12T01:10:26.117Z,9.07
2023-11-12T01:12:54.592Z,8.88
2023-11-12T01:15:24.237Z,8.30
2023-11-12T01:17:54.133Z,9.93
2023-11-12T01:20:23.637Z,9.38
2023-11-12T01:22:52.200Z,9.30
2023-11-12T01:25:20.814Z,9.23
2023-11-12T01:27:49.326Z,8.90
2023-11-12T01:30:18.439Z,9.77
2023-11-12T01:32:47.098Z,8.60
2023-11-12T01:35:17.078Z,8.77
2023-11-12T01:37:45.861Z,8.60
2023-11-12T01:40:15.616Z,9.40
2023-11-12T01:42:44.187Z,8.68
2023-11-12T01:45:13.728Z,8.60
2023-11-12T01:47:45.270Z,8.63
2023-11-12T01:50:14.987Z,9.25
2023-11-12T01:52:49.164Z,8.93
2023-11-12T01:55:20.931Z,8.30
2023-11-12T01:57:49.911Z,7.97
2023-11-12T02:00:20.241Z,9.73
2023-11-12T02:02:49.038Z,9.05
2023-11-12T02:05:18.330Z,9.45
2023-11-12T02:07:49.812Z,9.40
2023-11-12T02:10:18.531Z,9.68
2023-11-12T02:12:48.783Z,8.98
2023-11-12T02:15:19.022Z,9.65
2023-11-12T02:18:07.775Z,9.45
2023-11-12T02:20:36.384Z,10.15
2023-11-12T02:23:06.232Z,9.23
2023-11-12T02:25:36.151Z,9.02
2023-11-12T02:28:07.054Z,9.52
2023-11-12T02:30:35.783Z,10.02
2023-11-12T02:33:04.511Z,8.80
2023-11-12T02:35:33.462Z,8.80
2023-11-12T02:38:02.018Z,10.52
2023-11-12T02:40:30.464Z,9.90
2023-11-12T02:43:00.374Z,9.25
2023-11-12T02:45:28.869Z,8.70
2023-11-12T02:47:57.725Z,9.32
2023-11-12T02:50:31.919Z,9.27
2023-11-12T02:53:02.241Z,9.80
2023-11-12T02:55:31.706Z,9.77
2023-11-12T02:58:01.918Z,8.98
2023-11-12T03:00:30.617Z,10.50
2023-11-12T03:03:01.599Z,9.38
2023-11-12T03:05:32.673Z,9.32
2023-11-12T03:08:01.438Z,8.85
2023-11-12T03:10:44.295Z,9.55
2023-11-12T03:13:14.420Z,9.82
2023-11-12T03:15:43.761Z,8.85
2023-11-12T03:18:12.352Z,9.07
2023-11-12T03:20:40.977Z,8.93
2023-11-12T03:23:09.437Z,8.32
2023-11-12T03:25:38.105Z,9.23
2023-11-12T03:28:06.515Z,7.95
2023-11-12T03:30:37.201Z,9.02
2023-11-12T03:33:05.864Z,8.88
2023-11-12T03:35:34.329Z,9.57
2023-11-12T03:38:08.868Z,9.35
2023-11-12T03:40:37.305Z,9.90
2023-11-12T03:43:05.905Z,9.52
2023-11-12T03:45:35.796Z,10.32
2023-11-12T03:48:04.482Z,8.73
2023-11-12T03:50:33.066Z,9.77
2023-11-12T03:53:01.525Z,10.30
2023-11-12T03:55:29.955Z,10.10
2023-11-12T03:57:58.515Z,9.95
2023-11-12T04:00:27.011Z,9.50
2023-11-12T04:02:57.991Z,10.98
2023-11-12T04:05:26.664Z,10.10
2023-11-12T04:07:55.095Z,10.02
2023-11-12T04:10:23.787Z,10.50
2023-11-12T04:12:52.361Z,11.27
2023-11-12T04:15:20.794Z,10.75
2023-11-12T04:17:49.488Z,11.23
2023-11-12T04:20:19.489Z,10.45
2023-11-12T04:22:48.246Z,11.40
2023-11-12T04:25:16.709Z,10.70
2023-11-12T04:27:45.741Z,11.05
2023-11-12T04:30:14.479Z,11.18
2023-11-12T04:32:42.925Z,12.10
2023-11-12T04:35:12.131Z,11.95
2023-11-12T04:37:42.663Z,12.13
2023-11-12T04:40:13.053Z,11.30
2023-11-12T04:42:42.696Z,11.52
2023-11-12T04:45:11.960Z,11.93
2023-11-12T04:47:40.540Z,11.95
2023-11-12T04:50:10.190Z,12.77
2023-11-12T04:52:38.697Z,11.63
2023-11-12T04:55:09.265Z,13.32
2023-11-12T04:57:37.914Z,11.65
2023-11-12T05:00:07.943Z,12.40
2023-11-12T05:02:36.527Z,12.00
2023-11-12T05:05:05.573Z,12.57
2023-11-12T05:07:34.105Z,12.45
2023-11-12T05:10:02.576Z,13.07
2023-11-12T05:12:32.421Z,12.52
2023-11-12T05:15:01.073Z,13.23
2023-11-12T05:17:30.362Z,12.60
2023-11-12T05:19:58.994Z,10.98
2023-11-12T05:22:27.512Z,12.15
2023-11-12T05:24:55.967Z,13.63
2023-11-12T05:27:24.546Z,12.07
2023-11-12T05:29:54.361Z,10.93
2023-11-12T05:32:22.781Z,10.77
2023-11-12T05:34:51.779Z,11.90
2023-11-12T05:37:20.321Z,11.27
2023-11-12T05:39:48.821Z,12.38
2023-11-12T05:42:17.436Z,11.93
2023-11-12T05:44:45.952Z,11.45
2023-11-12T05:47:15.982Z,10.57
2023-11-12T05:49:44.381Z,10.95
2023-11-12T05:52:12.938Z,10.68
2023-11-12T05:54:41.445Z,11.57
2023-11-12T05:57:09.958Z,11.05
2023-11-12T05:59:38.480Z,11.07
2023-11-12T06:02:06.926Z,10.90
2023-11-12T06:04:36.878Z,10.70
2023-11-12T06:07:05.682Z,11.48
2023-11-12T06:09:34.182Z,11.07
2023-11-12T06:12:05.998Z,10.50
2023-11-12T06:14:36.629Z,10.88
2023-11-12T06:17:06.373Z,12.23
2023-11-12T06:19:36.289Z,12.20
2023-11-12T06:22:05.063Z,11.85
2023-11-12T06:24:33.557Z,11.77
2023-11-12T06:27:02.127Z,12.35
2023-11-12T06:29:31.010Z,12.25
2023-11-12T06:31:59.553Z,12.27
2023-11-12T06:34:28.240Z,10.80
2023-11-12T06:36:58.260Z,11.45
2023-11-12T06:39:27.029Z,11.45
2023-11-12T06:41:55.518Z,12.38
2023-11-12T06:44:24.094Z,11.73
2023-11-12T06:46:52.875Z,12.00
2023-11-12T06:49:21.935Z,12.40
2023-11-12T06:51:52.063Z,11.32
2023-11-12T06:54:21.956Z,11.90
2023-11-12T06:56:51.016Z,12.63
2023-11-12T06:59:22.543Z,11.85
2023-11-12T07:01:51.691Z,12.60
2023-11-12T07:04:27.873Z,11.68
2023-11-12T07:07:09.202Z,12.55
2023-11-12T07:09:47.808Z,11.57
2023-11-12T07:12:21.174Z,12.32
2023-11-12T07:14:53.203Z,12.05
2023-11-12T07:17:26.453Z,11.82
2023-11-12T07:20:03.983Z,9.50
2023-11-12T07:22:32.634Z,7.63
2023-11-12T07:25:02.547Z,6.93
2023-11-12T07:27:32.276Z,7.20
2023-11-12T07:30:00.830Z,7.35
2023-11-12T07:32:29.972Z,7.43
2023-11-12T07:34:58.690Z,8.15
2023-11-12T07:37:27.404Z,8.10
2023-11-12T07:39:56.033Z,8.18
2023-11-12T07:42:25.959Z,6.60
2023-11-12T07:45:00.174Z,7.47
2023-11-12T07:47:37.155Z,6.53
2023-11-12T07:50:07.770Z,6.40
2023-11-12T07:52:37.129Z,7.10
2023-11-12T07:55:06.707Z,7.13
2023-11-12T07:57:36.473Z,6.50
2023-11-12T08:00:07.243Z,7.88
2023-11-12T08:02:36.071Z,7.70
2023-11-12T08:05:07.069Z,8.05
2023-11-12T08:07:35.792Z,8.32
2023-11-12T08:10:05.907Z,8.23
2023-11-12T08:12:35.911Z,8.52
2023-11-12T08:15:06.550Z,8.40
2023-11-12T08:17:35.087Z,8.35
2023-11-12T08:20:05.327Z,8.35
2023-11-12T08:22:34.014Z,8.18
2023-11-12T08:25:03.722Z,7.53
2023-11-12T08:27:32.414Z,8.35
2023-11-12T08:30:02.202Z,6.95
2023-11-12T08:32:32.268Z,8.50
2023-11-12T08:35:01.001Z,8.48
2023-11-12T08:37:29.954Z,7.85
2023-11-12T08:39:58.758Z,8.10
2023-11-12T08:42:27.984Z,7.00
2023-11-12T08:44:57.813Z,6.95
2023-11-12T08:47:27.826Z,7.60
2023-11-12T08:49:56.305Z,7.40
2023-11-12T08:52:24.892Z,8.40
2023-11-12T08:54:54.213Z,7.88
2023-11-12T08:57:22.977Z,8.45
2023-11-12T08:59:53.183Z,7.28
2023-11-12T09:02:22.052Z,8.05
2023-11-12T09:04:51.829Z,7.28
2023-11-12T09:07:20.384Z,6.47
2023-11-12T09:09:48.974Z,6.05
2023-11-12T09:12:17.758Z,7.88
2023-11-12T09:14:46.235Z,6.68
2023-11-12T09:17:15.493Z,5.00
2023-11-12T09:19:49.056Z,5.28
2023-11-12T09:22:19.159Z,4.97
2023-11-12T09:25:00.626Z,4.35
2023-11-12T09:27:36.404Z,5.70
2023-11-12T09:30:07.467Z,5.03
2023-11-12T09:32:37.008Z,5.63
2023-11-12T09:35:07.046Z,4.63
2023-11-12T09:37:36.891Z,3.63
2023-11-12T09:40:09.276Z,3.28
2023-11-12T09:42:40.677Z,4.35
2023-11-12T09:45:11.544Z,3.60
2023-11-12T09:47:46.146Z,3.47
2023-11-12T09:50:15.615Z,2.30
2023-11-12T09:52:48.319Z,3.05
2023-11-12T09:55:17.928Z,3.17
2023-11-12T09:57:47.945Z,2.25
2023-11-12T10:00:17.909Z,3.00
2023-11-12T10:02:46.952Z,3.35
2023-11-12T10:05:16.622Z,2.75
2023-11-12T10:07:47.308Z,2.55
2023-11-12T10:10:23.165Z,2.05
2023-11-12T10:12:53.481Z,3.13
2023-11-12T10:15:25.053Z,2.58
2023-11-12T10:17:56.881Z,2.30
2023-11-12T10:20:30.863Z,2.60
2023-11-12T10:23:02.979Z,2.42
2023-11-12T10:25:40.639Z,2.28
2023-11-12T10:28:10.767Z,1.80
2023-11-12T10:30:39.903Z,1.95
2023-11-12T10:33:19.078Z,2.08
2023-11-12T10:35:49.509Z,2.08
2023-11-12T10:38:19.916Z,2.20
2023-11-12T10:41:03.615Z,1.83
2023-11-12T10:43:33.661Z,2.80
2023-11-12T10:46:05.256Z,1.70
2023-11-12T10:48:36.229Z,2.42
2023-11-12T10:51:06.585Z,1.83
2023-11-12T10:53:38.060Z,2.00
2023-11-12T10:56:07.761Z,1.67
2023-11-12T10:58:36.840Z,2.58
2023-11-12T11:01:08.495Z,1.90
2023-11-12T11:03:38.014Z,2.70
2023-11-12T11:06:09.301Z,1.90
2023-11-12T11:08:39.280Z,2.05
2023-11-12T11:11:11.346Z,2.30
2023-11-12T11:13:40.946Z,2.47
2023-11-12T11:16:10.451Z,2.40
2023-11-12T11:18:53.890Z,2.10
2023-11-12T11:21:22.911Z,2.13
2023-11-12T11:23:54.523Z,2.33
2023-11-12T11:26:32.149Z,1.70
2023-11-12T11:29:20.935Z,1.77
2023-11-12T11:32:18.954Z,1.80
2023-11-12T11:34:49.506Z,2.00
2023-11-12T11:37:20.569Z,1.83
2023-11-12T11:39:50.890Z,2.22
2023-11-12T11:42:19.064Z,1.67
2023-11-12T11:44:50.745Z,2.25
2023-11-12T11:47:21.651Z,1.38
2023-11-12T11:49:50.988Z,1.67
2023-11-12T11:52:21.730Z,1.85
2023-11-12T11:55:01.533Z,1.45
2023-11-12T11:57:31.524Z,1.40
2023-11-12T12:00:02.220Z,1.60
2023-11-12T12:02:30.972Z,1.58
2023-11-12T12:05:00.672Z,2.20
2023-11-12T12:07:31.109Z,1.83
2023-11-12T12:10:02.714Z,1.55
2023-11-12T12:12:31.694Z,1.45
2023-11-12T12:15:00.215Z,2.10
2023-11-12T12:17:30.606Z,1.98
2023-11-12T12:19:59.165Z,1.50
2023-11-12T12:22:30.959Z,1.60
2023-11-12T12:25:01.282Z,1.58
2023-11-12T12:27:30.029Z,2.00
2023-11-12T12:30:00.088Z,1.55
2023-11-12T12:32:29.380Z,1.42
2023-11-12T12:35:00.486Z,1.60
2023-11-12T12:37:31.820Z,1.50
2023-11-12T12:40:05.417Z,1.35
2023-11-12T12:42:35.386Z,1.17
2023-11-12T12:45:05.301Z,2.25
2023-11-12T12:47:36.695Z,1.33
2023-11-12T12:50:23.022Z,1.40
2023-11-12T12:52:52.323Z,1.73
2023-11-12T12:55:22.942Z,1.83
2023-11-12T12:57:52.046Z,1.85
2023-11-12T13:00:23.041Z,2.00
2023-11-12T13:02:53.087Z,2.05
2023-11-12T13:05:23.037Z,1.95
2023-11-12T13:07:53.116Z,1.40
2023-11-12T13:10:25.104Z,1.40
2023-11-12T13:12:57.325Z,1.75
2023-11-12T13:15:27.033Z,1.17
2023-11-12T13:17:57.463Z,1.83
2023-11-12T13:20:27.106Z,1.85
2023-11-12T13:22:56.233Z,1.50
2023-11-12T13:25:26.064Z,1.60
2023-11-12T13:27:56.004Z,1.50
2023-11-12T13:30:25.634Z,1.60
2023-11-12T13:32:55.025Z,1.70
2023-11-12T13:35:39.439Z,2.10
2023-11-12T13:38:10.975Z,2.42
2023-11-12T13:40:41.530Z,3.90
2023-11-12T13:43:10.077Z,2.40
2023-11-12T13:45:38.965Z,1.92
2023-11-12T13:48:09.341Z,2.47
2023-11-12T13:50:38.299Z,2.38
2023-11-12T13:53:11.092Z,2.00
2023-11-12T13:55:43.155Z,2.72
2023-11-12T13:58:12.788Z,1.98
2023-11-12T14:00:42.874Z,1.85
2023-11-12T14:03:12.356Z,1.88
2023-11-12T14:05:41.201Z,1.70
2023-11-12T14:08:13.152Z,2.10
2023-11-12T14:10:45.328Z,1.55
2023-11-12T14:13:19.434Z,1.10
2023-11-12T14:15:49.921Z,1.80
2023-11-12T14:18:19.664Z,1.77
2023-11-12T14:20:48.220Z,2.25
2023-11-12T14:23:17.956Z,1.30
2023-11-12T14:25:49.660Z,1.88
2023-11-12T14:28:23.124Z,1.70
2023-11-12T14:30:52.040Z,1.70
2023-11-12T14:33:20.686Z,58.63
2023-11-12T14:35:49.598Z,1.85
2023-11-12T14:38:20.280Z,1.85
2023-11-12T14:40:52.532Z,2.30
2023-11-12T14:43:21.450Z,2.25
2023-11-12T14:45:50.502Z,2.55
2023-11-12T14:48:20.630Z,2.00
2023-11-12T14:50:50.192Z,2.40
2023-11-12T14:53:20.385Z,2.28
2023-11-12T14:55:51.224Z,2.38
2023-11-12T14:58:21.929Z,2.00
2023-11-12T15:00:51.670Z,2.53
2023-11-12T15:03:22.128Z,3.20
2023-11-12T15:05:50.537Z,2.60
2023-11-12T15:08:18.928Z,2.60
2023-11-12T15:10:47.535Z,2.17
2023-11-12T15:13:16.216Z,2.78
2023-11-12T15:15:46.156Z,2.90
2023-11-12T15:18:15.358Z,3.47
2023-11-12T15:20:44.650Z,2.45
2023-11-12T15:23:13.307Z,2.75
2023-11-12T15:25:41.755Z,2.45
2023-11-12T15:28:10.375Z,2.00
2023-11-12T15:30:39.132Z,2.35
2023-11-12T15:33:09.953Z,3.03
2023-11-12T15:35:38.516Z,3.13
2023-11-12T15:38:07.662Z,3.40
2023-11-12T15:40:37.567Z,3.05
2023-11-12T15:43:09.095Z,3.28
2023-11-12T15:45:37.930Z,22.90
2023-11-12T15:48:07.615Z,6.45
2023-11-12T15:50:39.982Z,4.53
2023-11-12T15:53:08.836Z,4.47
2023-11-12T15:55:37.457Z,6.13
2023-11-12T15:58:06.725Z,4.78
2023-11-12T16:00:35.383Z,5.78
2023-11-12T16:03:09.255Z,4.50
2023-11-12T16:05:47.392Z,4.68
2023-11-12T16:08:16.306Z,4.88
2023-11-12T16:10:44.870Z,4.78
2023-11-12T16:13:21.120Z,5.55
2023-11-12T16:15:51.329Z,5.10
2023-11-12T16:18:20.294Z,5.95
2023-11-12T16:20:50.827Z,5.20
2023-11-12T16:23:21.151Z,5.03
2023-11-12T16:25:50.470Z,4.50
2023-11-12T16:28:19.087Z,7.90
2023-11-12T16:30:48.955Z,5.07
2023-11-12T16:33:17.591Z,6.63
2023-11-12T16:35:46.103Z,5.78
2023-11-12T16:38:17.568Z,5.20
2023-11-12T16:41:09.961Z,5.97
2023-11-12T16:43:40.120Z,5.82
2023-11-12T16:46:09.895Z,5.88
2023-11-12T16:48:38.747Z,5.93
2023-11-12T16:51:07.809Z,5.45
2023-11-12T16:53:38.067Z,6.50
2023-11-12T16:56:10.047Z,5.97
2023-11-12T16:58:38.600Z,5.20
2023-11-12T17:01:07.299Z,5.30
2023-11-12T17:03:35.955Z,5.65
2023-11-12T17:06:04.761Z,7.13
2023-11-12T17:08:33.689Z,6.85
2023-11-12T17:11:03.953Z,6.50
2023-11-12T17:13:34.146Z,6.40
2023-11-12T17:16:03.554Z,7.07
2023-11-12T17:18:34.203Z,7.95
2023-11-12T17:21:02.787Z,8.45
2023-11-12T17:23:31.549Z,12.05
2023-11-12T17:26:01.053Z,12.60
2023-11-12T17:28:31.051Z,10.95
2023-11-12T17:30:59.870Z,11.75
2023-11-12T17:33:33.306Z,9.63
2023-11-12T17:36:02.089Z,9.07
2023-11-12T17:38:31.739Z,9.98
2023-11-12T17:41:00.499Z,11.35
2023-11-12T17:43:28.906Z,14.20
2023-11-12T17:45:58.729Z,12.35
2023-11-12T17:48:27.409Z,13.05
2023-11-12T17:50:58.598Z,13.52
2023-11-12T17:53:27.552Z,12.13
2023-11-12T17:55:56.073Z,12.50
2023-11-12T17:58:24.890Z,11.82
2023-11-12T18:00:55.620Z,12.63
2023-11-12T18:03:28.361Z,11.10
2023-11-12T18:05:56.930Z,11.05
2023-11-12T18:08:25.571Z,10.68
2023-11-12T18:10:54.707Z,12.40
2023-11-12T18:13:23.228Z,12.60
2023-11-12T18:15:51.688Z,11.95
2023-11-12T18:18:20.293Z,10.65
2023-11-12T18:20:50.692Z,11.85
2023-11-12T18:23:23.632Z,12.52
2023-11-12T18:25:52.450Z,11.13
2023-11-12T18:28:21.260Z,12.60
2023-11-12T18:30:50.196Z,12.02
2023-11-12T18:33:19.863Z,13.02
2023-11-12T18:35:50.019Z,11.85
2023-11-12T18:38:19.183Z,12.68
2023-11-12T18:40:48.420Z,11.40
2023-11-12T18:43:17.361Z,10.80
2023-11-12T18:45:45.789Z,10.77
2023-11-12T18:48:14.518Z,10.77
2023-11-12T18:50:43.933Z,10.45
2023-11-12T18:53:14.355Z,10.35
2023-11-12T18:55:42.769Z,11.00
2023-11-12T18:58:14.963Z,10.80
2023-11-12T19:00:43.658Z,11.35
2023-11-12T19:03:13.038Z,11.15
2023-11-12T19:05:42.116Z,10.40
2023-11-12T19:08:14.398Z,10.82
2023-11-12T19:10:44.767Z,10.65
2023-11-12T19:13:13.946Z,11.10
2023-11-12T19:15:42.384Z,12.20
2023-11-12T19:18:13.568Z,10.38
2023-11-12T19:20:44.274Z,11.35
2023-11-12T19:23:12.975Z,10.48
2023-11-12T19:25:45.342Z,10.93
2023-11-12T19:28:13.936Z,10.57
2023-11-12T19:30:42.578Z,11.18
2023-11-12T19:33:11.129Z,11.80
2023-11-12T19:35:39.737Z,16.08
2023-11-12T19:38:09.846Z,16.15
2023-11-12T19:40:38.325Z,12.98
2023-11-12T19:43:08.212Z,13.50
2023-11-12T19:45:36.832Z,14.60
2023-11-12T19:48:06.231Z,16.65
2023-11-12T19:50:34.881Z,12.77
2023-11-12T19:53:03.417Z,15.45
2023-11-12T19:55:46.057Z,13.52
2023-11-12T19:58:16.053Z,13.02
2023-11-12T20:00:44.580Z,14.25
2023-11-12T20:03:13.810Z,23.85
2023-11-12T20:05:42.860Z,15.50
2023-11-12T20:08:11.429Z,13.10
2023-11-12T20:10:40.564Z,12.13
2023-11-12T20:13:09.174Z,10.65
2023-11-12T20:15:40.113Z,11.65
2023-11-12T20:18:10.684Z,12.00
2023-11-12T20:20:40.484Z,13.52
2023-11-12T20:23:09.051Z,12.77
2023-11-12T20:25:37.611Z,13.38
2023-11-12T20:28:12.392Z,12.55
2023-11-12T20:30:44.862Z,12.85
2023-11-12T20:33:14.122Z,13.10
2023-11-12T20:35:48.228Z,12.65
2023-11-12T20:38:16.762Z,13.05
2023-11-12T20:40:45.860Z,12.23
2023-11-12T20:43:14.535Z,11.30
2023-11-12T20:45:45.319Z,12.27
2023-11-12T20:48:17.029Z,12.93
2023-11-12T20:50:45.594Z,11.52
2023-11-12T20:53:15.349Z,11.63
2023-11-12T20:55:44.581Z,11.30
2023-11-12T20:58:13.290Z,11.40
2023-11-12T21:00:44.447Z,11.00
2023-11-12T21:03:14.541Z,10.98
2023-11-12T21:05:45.330Z,11.82
2023-11-12T21:08:14.342Z,11.73
2023-11-12T21:10:43.243Z,10.75
2023-11-12T21:13:11.788Z,11.52
2023-11-12T21:15:42.313Z,10.23
2023-11-12T21:18:12.783Z,10.82
2023-11-12T21:20:42.848Z,11.05
2023-11-12T21:23:12.722Z,11.13
2023-11-12T21:25:41.777Z,10.20
2023-11-12T21:28:11.156Z,9.93
2023-11-12T21:30:39.964Z,9.35
2023-11-12T21:33:08.525Z,8.98
2023-11-12T21:35:39.349Z,9.40
2023-11-12T21:38:12.241Z,9.20
2023-11-12T21:40:40.823Z,9.68
2023-11-12T21:43:11.512Z,14.55
2023-11-12T21:45:54.394Z,11.98
2023-11-12T21:48:22.992Z,17.08
2023-11-12T21:50:54.219Z,10.48
2023-11-12T21:53:24.592Z,13.13
2023-11-12T21:55:58.669Z,9.90
2023-11-12T21:58:27.208Z,9.02
2023-11-12T22:00:59.053Z,11.00
2023-11-12T22:03:28.554Z,10.88
2023-11-12T22:05:57.305Z,8.85
2023-11-12T22:08:27.225Z,8.05
2023-11-12T22:10:55.771Z,9.57
2023-11-12T22:13:24.545Z,8.55
2023-11-12T22:15:53.116Z,8.73
2023-11-12T22:18:24.958Z,9.18
2023-11-12T22:20:55.022Z,8.77
2023-11-12T22:23:23.798Z,9.35
2023-11-12T22:25:53.974Z,8.10
2023-11-12T22:28:22.501Z,8.63
2023-11-12T22:30:51.173Z,8.50
2023-11-12T22:33:19.789Z,7.97
2023-11-12T22:35:49.026Z,8.65
2023-11-12T22:38:18.308Z,8.13
2023-11-12T22:40:46.765Z,8.77
2023-11-12T22:43:16.697Z,9.18
2023-11-12T22:45:45.414Z,8.30
2023-11-12T22:48:14.058Z,7.80
2023-11-12T22:50:43.067Z,10.27
2023-11-12T22:53:11.874Z,9.43
2023-11-12T22:55:40.338Z,7.47
2023-11-12T22:58:13.170Z,8.65
2023-11-12T23:00:48.207Z,9.00
2023-11-12T23:03:18.800Z,9.75
2023-11-12T23:05:49.328Z,9.75
2023-11-12T23:08:18.025Z,8.50
2023-11-12T23:10:46.933Z,8.15
2023-11-12T23:13:18.464Z,8.32
2023-11-12T23:15:48.491Z,8.80
2023-11-12T23:18:18.807Z,9.40
2023-11-12T23:20:52.569Z,9.32
2023-11-12T23:23:29.699Z,9.40
2023-11-12T23:25:58.354Z,9.68
2023-11-12T23:28:27.409Z,8.20
2023-11-12T23:30:59.738Z,8.95
2023-11-12T23:33:28.688Z,9.23
2023-11-12T23:35:57.971Z,9.38
2023-11-12T23:38:26.613Z,7.95
2023-11-12T23:40:55.900Z,8.45
2023-11-12T23:43:24.562Z,7.55
2023-11-12T23:45:53.632Z,8.38
2023-11-12T23:48:23.801Z,9.05
2023-11-12T23:50:52.314Z,8.25
2023-11-12T23:53:20.844Z,8.93
2023-11-12T23:55:49.316Z,8.73
2023-11-12T23:58:17.927Z,8.68
